sensor_id;sensor_type;location;lat;lon;timestamp;P1;durP1;ratioP1;P2;durP2;ratioP2
57746;SDS011;43580;44.014;20.466;2022-08-03T00:00:45;6.53;;;4.57;;
57746;SDS011;43580;44.014;20.466;2022-08-03T00:03:11;7.40;;;4.30;;
57746;SDS011;43580;44.014;20.466;2022-08-03T00:05:37;6.78;;;4.32;;
57746;SDS011;43580;44.014;20.466;2022-08-03T00:08:04;7.25;;;4.80;;
57746;SDS011;43580;44.014;20.466;2022-08-03T00:10:30;11.95;;;5.45;;
57746;SDS011;43580;44.014;20.466;2022-08-03T00:12:56;6.10;;;4.35;;
57746;SDS011;43580;44.014;20.466;2022-08-03T00:15:22;8.18;;;4.43;;
57746;SDS011;43580;44.014;20.466;2022-08-03T00:17:48;7.75;;;4.75;;
57746;SDS011;43580;44.014;20.466;2022-08-03T00:20:14;8.75;;;4.38;;
57746;SDS011;43580;44.014;20.466;2022-08-03T00:22:40;5.50;;;4.07;;
57746;SDS011;43580;44.014;20.466;2022-08-03T00:25:06;6.50;;;4.32;;
57746;SDS011;43580;44.014;20.466;2022-08-03T00:27:32;5.40;;;4.18;;
57746;SDS011;43580;44.014;20.466;2022-08-03T00:29:58;6.90;;;5.05;;
57746;SDS011;43580;44.014;20.466;2022-08-03T00:32:30;8.77;;;4.50;;
57746;SDS011;43580;44.014;20.466;2022-08-03T00:34:56;5.68;;;4.53;;
57746;SDS011;43580;44.014;20.466;2022-08-03T00:37:22;6.20;;;4.15;;
57746;SDS011;43580;44.014;20.466;2022-08-03T00:39:48;6.80;;;4.40;;
57746;SDS011;43580;44.014;20.466;2022-08-03T00:42:14;6.30;;;4.40;;
57746;SDS011;43580;44.014;20.466;2022-08-03T00:44:41;6.38;;;4.53;;
57746;SDS011;43580;44.014;20.466;2022-08-03T00:47:08;6.20;;;4.60;;
57746;SDS011;43580;44.014;20.466;2022-08-03T00:49:37;5.72;;;4.28;;
57746;SDS011;43580;44.014;20.466;2022-08-03T00:52:09;6.72;;;4.80;;
57746;SDS011;43580;44.014;20.466;2022-08-03T00:54:39;8.10;;;4.40;;
57746;SDS011;43580;44.014;20.466;2022-08-03T00:57:05;6.70;;;4.88;;
57746;SDS011;43580;44.014;20.466;2022-08-03T00:59:31;6.88;;;4.72;;
57746;SDS011;43580;44.014;20.466;2022-08-03T01:01:58;7.22;;;4.80;;
57746;SDS011;43580;44.014;20.466;2022-08-03T01:04:24;6.28;;;4.32;;
57746;SDS011;43580;44.014;20.466;2022-08-03T01:12:47;6.82;;;4.85;;
57746;SDS011;43580;44.014;20.466;2022-08-03T01:20:12;7.30;;;4.72;;
57746;SDS011;43580;44.014;20.466;2022-08-03T01:30:15;6.65;;;5.10;;
57746;SDS011;43580;44.014;20.466;2022-08-03T01:32:47;5.25;;;4.65;;
57746;SDS011;43580;44.014;20.466;2022-08-03T01:35:18;7.93;;;4.78;;
57746;SDS011;43580;44.014;20.466;2022-08-03T01:37:49;6.63;;;4.90;;
57746;SDS011;43580;44.014;20.466;2022-08-03T01:40:16;9.38;;;4.95;;
57746;SDS011;43580;44.014;20.466;2022-08-03T01:42:45;8.85;;;4.80;;
57746;SDS011;43580;44.014;20.466;2022-08-03T01:45:13;7.95;;;5.57;;
57746;SDS011;43580;44.014;20.466;2022-08-03T01:47:42;6.15;;;5.43;;
57746;SDS011;43580;44.014;20.466;2022-08-03T01:50:09;11.95;;;5.10;;
57746;SDS011;43580;44.014;20.466;2022-08-03T01:52:36;7.72;;;5.05;;
57746;SDS011;43580;44.014;20.466;2022-08-03T01:55:05;7.95;;;5.00;;
57746;SDS011;43580;44.014;20.466;2022-08-03T01:57:32;7.53;;;4.57;;
57746;SDS011;43580;44.014;20.466;2022-08-03T01:59:58;7.10;;;5.10;;
57746;SDS011;43580;44.014;20.466;2022-08-03T02:02:24;6.05;;;5.00;;
57746;SDS011;43580;44.014;20.466;2022-08-03T02:04:51;6.72;;;5.38;;
57746;SDS011;43580;44.014;20.466;2022-08-03T02:07:18;10.43;;;5.10;;
57746;SDS011;43580;44.014;20.466;2022-08-03T02:09:46;6.85;;;4.90;;
57746;SDS011;43580;44.014;20.466;2022-08-03T02:12:13;7.95;;;4.72;;
57746;SDS011;43580;44.014;20.466;2022-08-03T02:14:39;7.82;;;5.03;;
57746;SDS011;43580;44.014;20.466;2022-08-03T02:17:06;6.40;;;5.10;;
57746;SDS011;43580;44.014;20.466;2022-08-03T02:19:32;7.03;;;4.82;;
57746;SDS011;43580;44.014;20.466;2022-08-03T02:21:59;7.00;;;4.85;;
57746;SDS011;43580;44.014;20.466;2022-08-03T02:24:25;7.28;;;5.15;;
57746;SDS011;43580;44.014;20.466;2022-08-03T02:26:52;9.25;;;5.43;;
57746;SDS011;43580;44.014;20.466;2022-08-03T02:29:20;8.25;;;5.43;;
57746;SDS011;43580;44.014;20.466;2022-08-03T02:31:48;7.93;;;5.38;;
57746;SDS011;43580;44.014;20.466;2022-08-03T02:34:14;6.05;;;5.22;;
57746;SDS011;43580;44.014;20.466;2022-08-03T02:36:42;10.02;;;5.90;;
57746;SDS011;43580;44.014;20.466;2022-08-03T02:39:10;7.10;;;5.80;;
57746;SDS011;43580;44.014;20.466;2022-08-03T02:41:41;10.65;;;6.70;;
57746;SDS011;43580;44.014;20.466;2022-08-03T02:44:08;7.35;;;5.57;;
57746;SDS011;43580;44.014;20.466;2022-08-03T02:46:36;7.28;;;5.47;;
57746;SDS011;43580;44.014;20.466;2022-08-03T02:49:03;6.95;;;5.75;;
57746;SDS011;43580;44.014;20.466;2022-08-03T02:51:30;7.35;;;5.15;;
57746;SDS011;43580;44.014;20.466;2022-08-03T02:53:57;9.40;;;5.57;;
57746;SDS011;43580;44.014;20.466;2022-08-03T02:56:27;8.48;;;5.47;;
57746;SDS011;43580;44.014;20.466;2022-08-03T02:58:59;6.47;;;5.30;;
57746;SDS011;43580;44.014;20.466;2022-08-03T03:01:26;6.40;;;5.20;;
57746;SDS011;43580;44.014;20.466;2022-08-03T03:03:54;7.53;;;5.78;;
57746;SDS011;43580;44.014;20.466;2022-08-03T03:06:21;7.78;;;5.63;;
57746;SDS011;43580;44.014;20.466;2022-08-03T03:08:48;8.30;;;5.57;;
57746;SDS011;43580;44.014;20.466;2022-08-03T03:11:16;8.10;;;5.38;;
57746;SDS011;43580;44.014;20.466;2022-08-03T03:13:43;8.82;;;5.10;;
57746;SDS011;43580;44.014;20.466;2022-08-03T03:16:11;8.50;;;5.60;;
57746;SDS011;43580;44.014;20.466;2022-08-03T03:18:37;6.22;;;5.30;;
57746;SDS011;43580;44.014;20.466;2022-08-03T03:21:04;7.82;;;5.43;;
57746;SDS011;43580;44.014;20.466;2022-08-03T03:23:38;8.13;;;5.53;;
57746;SDS011;43580;44.014;20.466;2022-08-03T03:26:07;8.23;;;5.75;;
57746;SDS011;43580;44.014;20.466;2022-08-03T03:28:34;9.52;;;6.07;;
57746;SDS011;43580;44.014;20.466;2022-08-03T03:31:04;6.70;;;5.57;;
57746;SDS011;43580;44.014;20.466;2022-08-03T03:33:30;8.85;;;5.72;;
57746;SDS011;43580;44.014;20.466;2022-08-03T03:35:57;9.93;;;5.93;;
57746;SDS011;43580;44.014;20.466;2022-08-03T03:38:24;6.05;;;5.30;;
57746;SDS011;43580;44.014;20.466;2022-08-03T03:40:50;9.50;;;5.53;;
57746;SDS011;43580;44.014;20.466;2022-08-03T03:43:23;5.75;;;4.95;;
57746;SDS011;43580;44.014;20.466;2022-08-03T03:45:50;10.52;;;5.85;;
57746;SDS011;43580;44.014;20.466;2022-08-03T03:48:17;10.90;;;5.43;;
57746;SDS011;43580;44.014;20.466;2022-08-03T03:50:51;8.03;;;5.70;;
57746;SDS011;43580;44.014;20.466;2022-08-03T03:53:17;7.57;;;6.18;;
57746;SDS011;43580;44.014;20.466;2022-08-03T03:55:43;7.88;;;6.38;;
57746;SDS011;43580;44.014;20.466;2022-08-03T03:58:10;7.90;;;6.05;;
57746;SDS011;43580;44.014;20.466;2022-08-03T04:00:36;8.70;;;5.82;;
57746;SDS011;43580;44.014;20.466;2022-08-03T04:03:02;10.68;;;6.63;;
57746;SDS011;43580;44.014;20.466;2022-08-03T04:05:28;13.30;;;6.25;;
57746;SDS011;43580;44.014;20.466;2022-08-03T04:08:16;8.18;;;6.47;;
57746;SDS011;43580;44.014;20.466;2022-08-03T04:16:11;16.27;;;7.10;;
57746;SDS011;43580;44.014;20.466;2022-08-03T04:18:39;8.80;;;7.00;;
57746;SDS011;43580;44.014;20.466;2022-08-03T04:21:07;14.00;;;7.35;;
57746;SDS011;43580;44.014;20.466;2022-08-03T04:23:34;12.65;;;7.13;;
57746;SDS011;43580;44.014;20.466;2022-08-03T04:26:05;14.60;;;7.50;;
57746;SDS011;43580;44.014;20.466;2022-08-03T04:28:35;9.10;;;6.70;;
57746;SDS011;43580;44.014;20.466;2022-08-03T04:31:02;11.52;;;7.57;;
57746;SDS011;43580;44.014;20.466;2022-08-03T04:33:30;23.70;;;14.40;;
57746;SDS011;43580;44.014;20.466;2022-08-03T04:35:57;34.38;;;21.08;;
57746;SDS011;43580;44.014;20.466;2022-08-03T04:38:23;37.00;;;22.98;;
57746;SDS011;43580;44.014;20.466;2022-08-03T04:40:50;14.90;;;8.57;;
57746;SDS011;43580;44.014;20.466;2022-08-03T04:43:17;13.98;;;7.88;;
57746;SDS011;43580;44.014;20.466;2022-08-03T04:45:44;14.02;;;9.38;;
57746;SDS011;43580;44.014;20.466;2022-08-03T04:48:11;12.52;;;9.02;;
57746;SDS011;43580;44.014;20.466;2022-08-03T04:50:39;10.82;;;7.97;;
57746;SDS011;43580;44.014;20.466;2022-08-03T04:53:05;10.13;;;8.05;;
57746;SDS011;43580;44.014;20.466;2022-08-03T04:55:34;8.30;;;7.45;;
57746;SDS011;43580;44.014;20.466;2022-08-03T04:58:01;9.25;;;7.07;;
57746;SDS011;43580;44.014;20.466;2022-08-03T05:00:30;10.13;;;7.32;;
57746;SDS011;43580;44.014;20.466;2022-08-03T05:02:56;12.25;;;7.40;;
57746;SDS011;43580;44.014;20.466;2022-08-03T05:05:22;9.73;;;6.20;;
57746;SDS011;43580;44.014;20.466;2022-08-03T05:07:48;12.63;;;8.50;;
57746;SDS011;43580;44.014;20.466;2022-08-03T05:10:15;53.10;;;39.60;;
57746;SDS011;43580;44.014;20.466;2022-08-03T05:12:41;31.30;;;21.10;;
57746;SDS011;43580;44.014;20.466;2022-08-03T05:15:08;31.30;;;21.00;;
57746;SDS011;43580;44.014;20.466;2022-08-03T05:17:34;28.58;;;17.88;;
57746;SDS011;43580;44.014;20.466;2022-08-03T05:20:01;25.30;;;19.80;;
57746;SDS011;43580;44.014;20.466;2022-08-03T05:22:28;21.30;;;16.45;;
57746;SDS011;43580;44.014;20.466;2022-08-03T05:24:54;30.35;;;24.38;;
57746;SDS011;43580;44.014;20.466;2022-08-03T05:27:20;31.25;;;22.42;;
57746;SDS011;43580;44.014;20.466;2022-08-03T05:29:47;21.67;;;17.20;;
57746;SDS011;43580;44.014;20.466;2022-08-03T05:32:14;34.78;;;26.17;;
57746;SDS011;43580;44.014;20.466;2022-08-03T05:34:41;18.90;;;14.13;;
57746;SDS011;43580;44.014;20.466;2022-08-03T05:37:09;19.67;;;14.05;;
57746;SDS011;43580;44.014;20.466;2022-08-03T05:39:35;20.55;;;13.10;;
57746;SDS011;43580;44.014;20.466;2022-08-03T05:42:04;13.68;;;10.00;;
57746;SDS011;43580;44.014;20.466;2022-08-03T05:44:30;16.35;;;9.13;;
57746;SDS011;43580;44.014;20.466;2022-08-03T05:46:56;11.00;;;7.68;;
57746;SDS011;43580;44.014;20.466;2022-08-03T05:49:23;11.98;;;7.10;;
57746;SDS011;43580;44.014;20.466;2022-08-03T05:51:49;9.23;;;6.85;;
57746;SDS011;43580;44.014;20.466;2022-08-03T05:54:15;11.48;;;7.07;;
57746;SDS011;43580;44.014;20.466;2022-08-03T05:56:41;11.40;;;6.72;;
57746;SDS011;43580;44.014;20.466;2022-08-03T05:59:08;9.30;;;6.40;;
57746;SDS011;43580;44.014;20.466;2022-08-03T06:01:34;9.63;;;6.13;;
57746;SDS011;43580;44.014;20.466;2022-08-03T06:04:00;9.35;;;6.25;;
57746;SDS011;43580;44.014;20.466;2022-08-03T06:06:26;11.50;;;5.90;;
57746;SDS011;43580;44.014;20.466;2022-08-03T06:08:52;6.85;;;5.63;;
57746;SDS011;43580;44.014;20.466;2022-08-03T06:11:18;10.60;;;5.63;;
57746;SDS011;43580;44.014;20.466;2022-08-03T06:13:45;8.25;;;5.28;;
57746;SDS011;43580;44.014;20.466;2022-08-03T06:16:11;7.40;;;4.70;;
57746;SDS011;43580;44.014;20.466;2022-08-03T06:18:37;8.10;;;5.20;;
57746;SDS011;43580;44.014;20.466;2022-08-03T06:21:04;12.32;;;5.78;;
57746;SDS011;43580;44.014;20.466;2022-08-03T06:23:30;13.57;;;6.93;;
57746;SDS011;43580;44.014;20.466;2022-08-03T06:25:56;8.13;;;4.07;;
57746;SDS011;43580;44.014;20.466;2022-08-03T06:28:22;6.28;;;4.30;;
57746;SDS011;43580;44.014;20.466;2022-08-03T06:30:48;7.80;;;4.25;;
57746;SDS011;43580;44.014;20.466;2022-08-03T06:33:14;6.53;;;3.65;;
57746;SDS011;43580;44.014;20.466;2022-08-03T06:35:40;6.45;;;3.95;;
57746;SDS011;43580;44.014;20.466;2022-08-03T06:38:07;7.93;;;3.60;;
57746;SDS011;43580;44.014;20.466;2022-08-03T06:40:34;7.40;;;4.18;;
57746;SDS011;43580;44.014;20.466;2022-08-03T06:43:04;6.30;;;4.00;;
57746;SDS011;43580;44.014;20.466;2022-08-03T06:45:30;6.13;;;3.85;;
57746;SDS011;43580;44.014;20.466;2022-08-03T06:48:04;10.25;;;4.00;;
57746;SDS011;43580;44.014;20.466;2022-08-03T06:50:30;5.80;;;3.92;;
57746;SDS011;43580;44.014;20.466;2022-08-03T06:52:57;5.78;;;3.70;;
57746;SDS011;43580;44.014;20.466;2022-08-03T06:55:23;7.57;;;3.80;;
57746;SDS011;43580;44.014;20.466;2022-08-03T06:57:49;7.43;;;4.22;;
57746;SDS011;43580;44.014;20.466;2022-08-03T07:00:15;4.57;;;3.90;;
57746;SDS011;43580;44.014;20.466;2022-08-03T07:02:41;6.57;;;4.20;;
57746;SDS011;43580;44.014;20.466;2022-08-03T07:05:08;8.23;;;3.70;;
57746;SDS011;43580;44.014;20.466;2022-08-03T07:07:34;7.07;;;3.38;;
57746;SDS011;43580;44.014;20.466;2022-08-03T07:10:00;5.55;;;3.90;;
57746;SDS011;43580;44.014;20.466;2022-08-03T07:12:27;5.93;;;3.50;;
57746;SDS011;43580;44.014;20.466;2022-08-03T07:14:54;5.00;;;4.05;;
57746;SDS011;43580;44.014;20.466;2022-08-03T07:17:20;4.70;;;3.75;;
57746;SDS011;43580;44.014;20.466;2022-08-03T07:19:47;5.57;;;4.20;;
57746;SDS011;43580;44.014;20.466;2022-08-03T07:22:13;5.28;;;4.07;;
57746;SDS011;43580;44.014;20.466;2022-08-03T07:24:39;5.45;;;4.13;;
57746;SDS011;43580;44.014;20.466;2022-08-03T07:27:09;6.25;;;3.85;;
57746;SDS011;43580;44.014;20.466;2022-08-03T07:29:35;5.47;;;3.88;;
57746;SDS011;43580;44.014;20.466;2022-08-03T07:32:02;7.38;;;3.60;;
57746;SDS011;43580;44.014;20.466;2022-08-03T07:34:29;7.00;;;3.63;;
57746;SDS011;43580;44.014;20.466;2022-08-03T07:36:55;5.80;;;3.97;;
57746;SDS011;43580;44.014;20.466;2022-08-03T07:39:21;8.27;;;4.05;;
57746;SDS011;43580;44.014;20.466;2022-08-03T07:41:47;5.57;;;4.20;;
57746;SDS011;43580;44.014;20.466;2022-08-03T07:44:17;9.68;;;4.18;;
57746;SDS011;43580;44.014;20.466;2022-08-03T07:46:43;4.63;;;3.60;;
57746;SDS011;43580;44.014;20.466;2022-08-03T07:49:09;7.82;;;4.07;;
57746;SDS011;43580;44.014;20.466;2022-08-03T07:51:38;6.75;;;4.30;;
57746;SDS011;43580;44.014;20.466;2022-08-03T07:54:04;7.93;;;4.18;;
57746;SDS011;43580;44.014;20.466;2022-08-03T07:56:30;7.78;;;4.07;;
57746;SDS011;43580;44.014;20.466;2022-08-03T07:58:56;6.78;;;3.85;;
57746;SDS011;43580;44.014;20.466;2022-08-03T08:01:23;7.22;;;3.90;;
57746;SDS011;43580;44.014;20.466;2022-08-03T08:03:49;6.60;;;4.13;;
57746;SDS011;43580;44.014;20.466;2022-08-03T08:06:16;9.27;;;3.80;;
57746;SDS011;43580;44.014;20.466;2022-08-03T08:08:43;5.70;;;3.70;;
57746;SDS011;43580;44.014;20.466;2022-08-03T08:11:09;8.38;;;3.90;;
57746;SDS011;43580;44.014;20.466;2022-08-03T08:13:35;5.53;;;3.92;;
57746;SDS011;43580;44.014;20.466;2022-08-03T08:16:04;6.13;;;3.70;;
57746;SDS011;43580;44.014;20.466;2022-08-03T08:18:33;6.82;;;3.65;;
57746;SDS011;43580;44.014;20.466;2022-08-03T08:20:59;11.00;;;4.07;;
57746;SDS011;43580;44.014;20.466;2022-08-03T08:23:27;8.60;;;3.30;;
57746;SDS011;43580;44.014;20.466;2022-08-03T08:25:53;13.05;;;4.78;;
57746;SDS011;43580;44.014;20.466;2022-08-03T08:28:20;5.03;;;3.60;;
57746;SDS011;43580;44.014;20.466;2022-08-03T08:30:46;4.30;;;3.25;;
57746;SDS011;43580;44.014;20.466;2022-08-03T08:33:13;4.47;;;3.20;;
57746;SDS011;43580;44.014;20.466;2022-08-03T08:35:39;5.32;;;3.40;;
57746;SDS011;43580;44.014;20.466;2022-08-03T08:38:05;4.63;;;3.28;;
57746;SDS011;43580;44.014;20.466;2022-08-03T08:40:31;3.88;;;2.88;;
57746;SDS011;43580;44.014;20.466;2022-08-03T08:42:58;3.50;;;3.17;;
57746;SDS011;43580;44.014;20.466;2022-08-03T08:45:24;5.28;;;2.95;;
57746;SDS011;43580;44.014;20.466;2022-08-03T08:47:50;4.40;;;3.58;;
57746;SDS011;43580;44.014;20.466;2022-08-03T08:50:19;6.50;;;3.30;;
57746;SDS011;43580;44.014;20.466;2022-08-03T08:52:48;3.85;;;3.00;;
57746;SDS011;43580;44.014;20.466;2022-08-03T08:55:18;5.35;;;3.22;;
57746;SDS011;43580;44.014;20.466;2022-08-03T08:57:47;7.30;;;3.20;;
57746;SDS011;43580;44.014;20.466;2022-08-03T09:00:13;10.00;;;3.72;;
57746;SDS011;43580;44.014;20.466;2022-08-03T09:02:40;3.47;;;2.88;;
57746;SDS011;43580;44.014;20.466;2022-08-03T09:05:10;5.07;;;3.03;;
57746;SDS011;43580;44.014;20.466;2022-08-03T09:07:39;10.27;;;3.13;;
57746;SDS011;43580;44.014;20.466;2022-08-03T09:10:06;6.03;;;3.00;;
57746;SDS011;43580;44.014;20.466;2022-08-03T09:12:36;5.32;;;2.97;;
57746;SDS011;43580;44.014;20.466;2022-08-03T09:15:22;5.50;;;3.47;;
57746;SDS011;43580;44.014;20.466;2022-08-03T09:17:49;5.93;;;3.25;;
57746;SDS011;43580;44.014;20.466;2022-08-03T09:20:15;8.85;;;2.72;;
57746;SDS011;43580;44.014;20.466;2022-08-03T09:22:52;4.88;;;2.85;;
57746;SDS011;43580;44.014;20.466;2022-08-03T09:25:32;4.38;;;2.80;;
57746;SDS011;43580;44.014;20.466;2022-08-03T09:28:11;6.95;;;3.42;;
57746;SDS011;43580;44.014;20.466;2022-08-03T09:30:38;5.57;;;3.25;;
57746;SDS011;43580;44.014;20.466;2022-08-03T09:33:06;4.50;;;3.20;;
57746;SDS011;43580;44.014;20.466;2022-08-03T09:35:32;4.65;;;3.05;;
57746;SDS011;43580;44.014;20.466;2022-08-03T09:38:08;3.50;;;2.80;;
57746;SDS011;43580;44.014;20.466;2022-08-03T09:40:34;5.32;;;3.30;;
57746;SDS011;43580;44.014;20.466;2022-08-03T09:43:00;5.72;;;3.08;;
57746;SDS011;43580;44.014;20.466;2022-08-03T09:45:26;4.07;;;2.83;;
57746;SDS011;43580;44.014;20.466;2022-08-03T09:47:54;5.30;;;2.90;;
57746;SDS011;43580;44.014;20.466;2022-08-03T09:50:21;6.30;;;2.92;;
57746;SDS011;43580;44.014;20.466;2022-08-03T09:52:50;6.35;;;3.10;;
57746;SDS011;43580;44.014;20.466;2022-08-03T09:55:19;4.05;;;2.75;;
57746;SDS011;43580;44.014;20.466;2022-08-03T09:57:45;5.47;;;2.85;;
57746;SDS011;43580;44.014;20.466;2022-08-03T10:00:12;4.50;;;2.88;;
57746;SDS011;43580;44.014;20.466;2022-08-03T10:02:39;4.22;;;2.45;;
57746;SDS011;43580;44.014;20.466;2022-08-03T10:05:06;5.82;;;2.80;;
57746;SDS011;43580;44.014;20.466;2022-08-03T10:07:45;4.45;;;2.90;;
57746;SDS011;43580;44.014;20.466;2022-08-03T10:10:12;4.93;;;2.72;;
57746;SDS011;43580;44.014;20.466;2022-08-03T10:12:39;5.63;;;2.78;;
57746;SDS011;43580;44.014;20.466;2022-08-03T10:15:05;5.32;;;2.75;;
57746;SDS011;43580;44.014;20.466;2022-08-03T10:17:32;3.47;;;2.75;;
57746;SDS011;43580;44.014;20.466;2022-08-03T10:19:58;3.30;;;2.50;;
57746;SDS011;43580;44.014;20.466;2022-08-03T10:22:32;4.30;;;2.75;;
57746;SDS011;43580;44.014;20.466;2022-08-03T10:24:59;5.13;;;2.80;;
57746;SDS011;43580;44.014;20.466;2022-08-03T10:27:36;7.45;;;2.58;;
57746;SDS011;43580;44.014;20.466;2022-08-03T10:30:03;4.05;;;2.75;;
57746;SDS011;43580;44.014;20.466;2022-08-03T10:32:31;5.15;;;2.95;;
57746;SDS011;43580;44.014;20.466;2022-08-03T10:35:03;8.55;;;2.78;;
57746;SDS011;43580;44.014;20.466;2022-08-03T10:37:31;5.90;;;3.15;;
57746;SDS011;43580;44.014;20.466;2022-08-03T10:40:02;5.93;;;2.60;;
57746;SDS011;43580;44.014;20.466;2022-08-03T10:42:32;6.18;;;2.67;;
57746;SDS011;43580;44.014;20.466;2022-08-03T10:45:05;6.07;;;3.00;;
57746;SDS011;43580;44.014;20.466;2022-08-03T10:47:32;5.80;;;2.80;;
57746;SDS011;43580;44.014;20.466;2022-08-03T10:49:58;4.63;;;2.70;;
57746;SDS011;43580;44.014;20.466;2022-08-03T10:52:25;7.85;;;3.22;;
57746;SDS011;43580;44.014;20.466;2022-08-03T10:54:51;6.45;;;3.20;;
57746;SDS011;43580;44.014;20.466;2022-08-03T11:00:22;5.65;;;3.00;;
57746;SDS011;43580;44.014;20.466;2022-08-03T11:05:27;4.35;;;3.00;;
57746;SDS011;43580;44.014;20.466;2022-08-03T11:10:39;4.32;;;2.88;;
57746;SDS011;43580;44.014;20.466;2022-08-03T11:13:05;4.88;;;3.00;;
57746;SDS011;43580;44.014;20.466;2022-08-03T11:15:32;7.28;;;3.38;;
57746;SDS011;43580;44.014;20.466;2022-08-03T11:18:09;4.38;;;2.90;;
57746;SDS011;43580;44.014;20.466;2022-08-03T11:23:10;4.18;;;2.90;;
57746;SDS011;43580;44.014;20.466;2022-08-03T11:28:25;13.63;;;3.10;;
57746;SDS011;43580;44.014;20.466;2022-08-03T11:30:52;2.97;;;2.40;;
57746;SDS011;43580;44.014;20.466;2022-08-03T11:33:36;7.07;;;3.03;;
57746;SDS011;43580;44.014;20.466;2022-08-03T11:36:02;4.20;;;3.05;;
57746;SDS011;43580;44.014;20.466;2022-08-03T11:38:28;7.25;;;3.33;;
57746;SDS011;43580;44.014;20.466;2022-08-03T11:40:54;6.13;;;3.10;;
57746;SDS011;43580;44.014;20.466;2022-08-03T11:51:00;6.28;;;3.15;;
57746;SDS011;43580;44.014;20.466;2022-08-03T11:53:26;4.90;;;2.90;;
57746;SDS011;43580;44.014;20.466;2022-08-03T11:55:52;4.03;;;2.95;;
57746;SDS011;43580;44.014;20.466;2022-08-03T11:58:21;7.05;;;3.55;;
57746;SDS011;43580;44.014;20.466;2022-08-03T12:00:49;9.63;;;3.30;;
57746;SDS011;43580;44.014;20.466;2022-08-03T12:03:16;6.43;;;4.40;;
57746;SDS011;43580;44.014;20.466;2022-08-03T12:05:44;11.55;;;4.13;;
57746;SDS011;43580;44.014;20.466;2022-08-03T12:08:11;5.88;;;2.95;;
57746;SDS011;43580;44.014;20.466;2022-08-03T12:10:38;6.35;;;3.50;;
57746;SDS011;43580;44.014;20.466;2022-08-03T12:13:05;5.82;;;3.00;;
57746;SDS011;43580;44.014;20.466;2022-08-03T12:15:33;5.18;;;3.38;;
57746;SDS011;43580;44.014;20.466;2022-08-03T12:18:00;4.78;;;3.72;;
57746;SDS011;43580;44.014;20.466;2022-08-03T12:20:27;7.63;;;3.13;;
57746;SDS011;43580;44.014;20.466;2022-08-03T12:23:00;3.33;;;2.83;;
57746;SDS011;43580;44.014;20.466;2022-08-03T12:25:29;5.50;;;2.95;;
57746;SDS011;43580;44.014;20.466;2022-08-03T12:28:04;5.47;;;2.75;;
57746;SDS011;43580;44.014;20.466;2022-08-03T12:30:31;9.13;;;3.03;;
57746;SDS011;43580;44.014;20.466;2022-08-03T12:32:57;5.75;;;3.00;;
57746;SDS011;43580;44.014;20.466;2022-08-03T12:35:23;4.05;;;3.03;;
57746;SDS011;43580;44.014;20.466;2022-08-03T12:37:50;4.05;;;2.60;;
57746;SDS011;43580;44.014;20.466;2022-08-03T12:40:25;8.13;;;2.67;;
57746;SDS011;43580;44.014;20.466;2022-08-03T12:42:51;5.38;;;2.67;;
57746;SDS011;43580;44.014;20.466;2022-08-03T12:50:23;6.38;;;3.05;;
57746;SDS011;43580;44.014;20.466;2022-08-03T12:52:49;5.10;;;2.70;;
57746;SDS011;43580;44.014;20.466;2022-08-03T12:55:18;5.72;;;2.90;;
57746;SDS011;43580;44.014;20.466;2022-08-03T12:57:45;3.88;;;2.70;;
57746;SDS011;43580;44.014;20.466;2022-08-03T13:00:15;16.42;;;10.38;;
57746;SDS011;43580;44.014;20.466;2022-08-03T13:02:42;6.25;;;3.95;;
57746;SDS011;43580;44.014;20.466;2022-08-03T13:05:13;4.32;;;3.38;;
57746;SDS011;43580;44.014;20.466;2022-08-03T13:07:43;9.45;;;3.00;;
57746;SDS011;43580;44.014;20.466;2022-08-03T13:10:10;4.55;;;2.97;;
57746;SDS011;43580;44.014;20.466;2022-08-03T13:12:46;4.95;;;2.78;;
57746;SDS011;43580;44.014;20.466;2022-08-03T13:15:13;4.43;;;2.70;;
57746;SDS011;43580;44.014;20.466;2022-08-03T13:17:39;5.20;;;2.63;;
57746;SDS011;43580;44.014;20.466;2022-08-03T13:20:05;4.93;;;4.40;;
57746;SDS011;43580;44.014;20.466;2022-08-03T13:22:31;4.43;;;2.83;;
57746;SDS011;43580;44.014;20.466;2022-08-03T13:25:00;6.22;;;3.75;;
57746;SDS011;43580;44.014;20.466;2022-08-03T13:27:27;5.13;;;2.72;;
57746;SDS011;43580;44.014;20.466;2022-08-03T13:29:54;16.77;;;6.50;;
57746;SDS011;43580;44.014;20.466;2022-08-03T13:32:20;4.65;;;3.55;;
57746;SDS011;43580;44.014;20.466;2022-08-03T13:34:47;12.23;;;6.35;;
57746;SDS011;43580;44.014;20.466;2022-08-03T13:37:13;8.18;;;5.32;;
57746;SDS011;43580;44.014;20.466;2022-08-03T13:39:39;11.75;;;6.32;;
57746;SDS011;43580;44.014;20.466;2022-08-03T13:42:06;10.95;;;4.88;;
57746;SDS011;43580;44.014;20.466;2022-08-03T13:44:33;4.68;;;3.13;;
57746;SDS011;43580;44.014;20.466;2022-08-03T13:47:02;4.90;;;3.42;;
57746;SDS011;43580;44.014;20.466;2022-08-03T13:49:28;10.15;;;4.28;;
57746;SDS011;43580;44.014;20.466;2022-08-03T13:51:55;7.35;;;5.43;;
57746;SDS011;43580;44.014;20.466;2022-08-03T13:54:21;7.38;;;4.53;;
57746;SDS011;43580;44.014;20.466;2022-08-03T13:56:47;5.43;;;3.70;;
57746;SDS011;43580;44.014;20.466;2022-08-03T13:59:20;6.05;;;3.05;;
57746;SDS011;43580;44.014;20.466;2022-08-03T14:01:49;4.50;;;3.65;;
57746;SDS011;43580;44.014;20.466;2022-08-03T14:04:16;12.30;;;5.72;;
57746;SDS011;43580;44.014;20.466;2022-08-03T14:06:42;5.25;;;3.60;;
57746;SDS011;43580;44.014;20.466;2022-08-03T14:09:09;29.35;;;9.68;;
57746;SDS011;43580;44.014;20.466;2022-08-03T14:11:35;5.65;;;3.33;;
57746;SDS011;43580;44.014;20.466;2022-08-03T14:14:01;9.15;;;3.95;;
57746;SDS011;43580;44.014;20.466;2022-08-03T14:16:28;10.40;;;3.50;;
57746;SDS011;43580;44.014;20.466;2022-08-03T14:18:54;7.82;;;4.20;;
57746;SDS011;43580;44.014;20.466;2022-08-03T14:21:20;5.13;;;3.45;;
57746;SDS011;43580;44.014;20.466;2022-08-03T14:23:46;5.82;;;3.17;;
57746;SDS011;43580;44.014;20.466;2022-08-03T14:26:12;5.95;;;3.22;;
57746;SDS011;43580;44.014;20.466;2022-08-03T14:28:38;5.43;;;3.80;;
57746;SDS011;43580;44.014;20.466;2022-08-03T14:31:07;10.70;;;3.75;;
57746;SDS011;43580;44.014;20.466;2022-08-03T14:33:35;5.85;;;3.22;;
57746;SDS011;43580;44.014;20.466;2022-08-03T14:36:01;6.07;;;3.30;;
57746;SDS011;43580;44.014;20.466;2022-08-03T14:38:27;7.43;;;3.33;;
57746;SDS011;43580;44.014;20.466;2022-08-03T14:40:53;7.13;;;3.95;;
57746;SDS011;43580;44.014;20.466;2022-08-03T14:43:19;6.97;;;3.95;;
57746;SDS011;43580;44.014;20.466;2022-08-03T14:45:46;7.00;;;4.45;;
57746;SDS011;43580;44.014;20.466;2022-08-03T14:48:16;6.40;;;3.47;;
57746;SDS011;43580;44.014;20.466;2022-08-03T14:50:42;6.88;;;3.50;;
57746;SDS011;43580;44.014;20.466;2022-08-03T14:53:08;6.78;;;3.70;;
57746;SDS011;43580;44.014;20.466;2022-08-03T14:55:34;3.90;;;2.70;;
57746;SDS011;43580;44.014;20.466;2022-08-03T14:58:00;5.03;;;2.92;;
57746;SDS011;43580;44.014;20.466;2022-08-03T15:00:30;6.75;;;3.15;;
57746;SDS011;43580;44.014;20.466;2022-08-03T15:02:56;5.07;;;3.75;;
57746;SDS011;43580;44.014;20.466;2022-08-03T15:05:22;4.55;;;2.85;;
57746;SDS011;43580;44.014;20.466;2022-08-03T15:07:48;8.05;;;3.20;;
57746;SDS011;43580;44.014;20.466;2022-08-03T15:10:15;3.67;;;2.80;;
57746;SDS011;43580;44.014;20.466;2022-08-03T15:12:41;4.10;;;2.60;;
57746;SDS011;43580;44.014;20.466;2022-08-03T15:15:07;5.88;;;3.00;;
57746;SDS011;43580;44.014;20.466;2022-08-03T15:17:33;3.70;;;2.67;;
57746;SDS011;43580;44.014;20.466;2022-08-03T15:19:59;4.30;;;2.83;;
57746;SDS011;43580;44.014;20.466;2022-08-03T15:22:25;3.28;;;2.67;;